Windsor, Illinois
Current Conditions -  °F | °C
As of 2:37 PM on Monday 26 Jan 2015 (Local Time) from KMTO Reporting Station
Light Snow Light Snow  
Wind Chill: 18°   Ceiling: 2000
Heat Index: 26°   Visibility: 0.75mi
Dew Point: 22°   Wind: 8mph
Humidity: 84%   Direction: 200°SSW
Pressure: 29.88"   Gusts: NA
Location:  39.44°N, 88.59°W
Report Text: KMTO 262037Z AUTO 20007KT 3/4SM -SN BR SCT010 OVC020 M03/M06 A2988 RMK AO2 P0000 T10331056
Loading
Personal Weather Stations






























Interactive Weather Map New forecast layout! Learn more

10-Day Weather Forecast

Advertisements
Track Severe Weather on mobile